Time;durP1;ratioP1;P1;durP2;ratioP2;P2;SDS_P1;SDS_P2;PMS_P1;PMS_P2;Temp;Humidity;BMP_temperature;BMP_pressure;BME280_temperature;BME280_humidity;BME280_pressure;Samples;Min_cycle;Max_cycle;Signal;HPM_P1;HPM_P2
2021/10/31 00:25:18;;;;;;;5.80;4.53;;;;;;;6.42;86.93;101020.41;4850757;29;20668;-76
2021/10/31 00:27:46;;;;;;;10.13;5.40;;;;;;;6.38;86.92;101018.75;4858442;29;20516;-75
2021/10/31 00:30:12;;;;;;;3.08;2.97;;;;;;;6.35;86.93;101013.63;4858148;29;20116;-76
2021/10/31 00:32:38;;;;;;;6.35;5.75;;;;;;;6.36;86.83;101022.25;4858116;29;20482;-76
2021/10/31 00:35:05;;;;;;;4.32;4.13;;;;;;;6.24;87.44;101023.34;4858035;29;20593;-76
2021/10/31 00:37:31;;;;;;;3.92;3.72;;;;;;;6.14;87.37;101006.25;4858037;29;20056;-75
2021/10/31 00:39:57;;;;;;;4.55;4.03;;;;;;;6.14;87.77;101020.06;4858103;29;20092;-76
2021/10/31 00:42:23;;;;;;;4.60;4.25;;;;;;;6.16;87.70;101018.31;4857764;29;20056;-75
2021/10/31 00:44:50;;;;;;;5.50;4.10;;;;;;;6.11;87.35;101011.50;4841417;29;20053;-75
2021/10/31 00:47:16;;;;;;;4.07;3.78;;;;;;;6.05;87.24;101012.44;4858148;29;20073;-76
2021/10/31 00:49:42;;;;;;;8.07;4.78;;;;;;;6.07;87.67;101020.22;4857717;29;20128;-75
2021/10/31 00:52:09;;;;;;;2.17;2.03;;;;;;;6.06;87.71;101014.16;4857884;29;20140;-77
2021/10/31 00:54:36;;;;;;;4.40;4.13;;;;;;;6.08;87.40;101007.22;4857619;29;20090;-76
2021/10/31 00:57:06;;;;;;;37.00;5.38;;;;;;;6.05;86.92;101015.03;4857919;29;20054;-76
2021/10/31 00:59:32;;;;;;;7.22;6.45;;;;;;;6.15;86.74;101016.59;4841448;29;20045;-76
2021/10/31 01:01:59;;;;;;;5.97;3.25;;;;;;;6.15;86.32;101003.63;4843759;29;20077;-78
2021/10/31 01:04:26;;;;;;;4.05;3.75;;;;;;;6.15;86.59;101015.75;4858372;29;20077;-76
2021/10/31 01:06:52;;;;;;;5.18;4.65;;;;;;;6.13;86.55;101010.59;4841630;29;20084;-76
2021/10/31 01:09:40;;;;;;;10.00;4.20;;;;;;;6.06;86.50;101003.78;4841023;29;20523;-76
2021/10/31 01:12:24;;;;;;;3.47;3.33;;;;;;;6.08;86.65;101002.06;4857763;29;20093;-77
2021/10/31 01:14:59;;;;;;;11.88;4.00;;;;;;;6.16;86.00;101000.16;4857529;29;20057;-78
2021/10/31 01:17:49;;;;;;;8.00;5.65;;;;;;;6.07;85.95;100995.16;4857514;29;20056;-76
2021/10/31 01:20:32;;;;;;;11.75;6.65;;;;;;;6.02;85.75;100991.75;4843587;29;20109;-76
2021/10/31 01:23:13;;;;;;;3.05;2.72;;;;;;;6.10;85.65;100994.22;4841194;29;20053;-76
2021/10/31 01:25:57;;;;;;;;;;;;;;;6.05;85.63;100989.13;4851943;29;20050;-75
2021/10/31 01:29:01;;;;;;;8.02;5.32;;;;;;;6.03;85.53;100983.13;4838679;29;19924;-76
2021/10/31 01:32:00;;;;;;;8.45;4.80;;;;;;;5.93;85.35;100978.97;4807430;29;20122;-77
2021/10/31 01:34:45;;;;;;;16.80;3.40;;;;;;;5.82;85.86;100988.66;4807388;29;20581;-75
2021/10/31 01:37:35;;;;;;;3.95;3.67;;;;;;;5.81;86.07;100980.91;4814147;29;20069;-76
2021/10/31 01:40:16;;;;;;;4.70;4.45;;;;;;;5.81;85.39;100976.56;4810278;29;20624;-75
2021/10/31 01:42:48;;;;;;;3.22;2.92;;;;;;;5.75;85.70;100981.88;4820564;29;20234;-75
2021/10/31 01:45:24;;;;;;;4.43;4.05;;;;;;;5.73;85.71;100975.84;4804478;29;20665;-76
2021/10/31 01:48:00;;;;;;;3.83;3.60;;;;;;;5.69;85.67;100974.22;4790085;29;20553;-76
2021/10/31 01:50:35;;;;;;;2.55;2.45;;;;;;;5.61;86.55;100971.72;4803982;29;20050;-76
2021/10/31 01:53:24;;;;;;;8.43;3.28;;;;;;;5.40;86.44;100950.53;4804669;29;20061;-76
2021/10/31 01:55:57;;;;;;;2.88;2.78;;;;;;;5.44;86.59;100976.31;4829814;29;20054;-76
2021/10/31 01:58:24;;;;;;;4.07;3.00;;;;;;;5.44;86.81;100965.97;4823087;29;20054;-78
2021/10/31 02:00:50;;;;;;;3.40;3.10;;;;;;;5.49;86.40;100974.53;4822559;29;20437;-75
2021/10/31 02:03:17;;;;;;;3.50;3.30;;;;;;;5.39;86.39;100977.28;4822777;29;20061;-77
2021/10/31 02:05:43;;;;;;;2.90;2.80;;;;;;;5.37;86.67;100974.72;4839077;29;20089;-77
2021/10/31 02:08:09;;;;;;;2.35;2.25;;;;;;;5.38;86.61;100972.97;4826166;29;20086;-76
2021/10/31 02:10:36;;;;;;;9.65;4.15;;;;;;;5.31;86.61;100967.03;4821489;29;20054;-75
2021/10/31 02:13:03;;;;;;;3.67;3.42;;;;;;;5.38;86.46;100970.38;4854291;29;20057;-77
2021/10/31 02:15:29;;;;;;;3.35;3.05;;;;;;;5.37;87.00;100966.06;4832595;29;20592;-76
2021/10/31 02:17:56;;;;;;;3.58;3.38;;;;;;;5.35;86.71;100971.31;4823131;29;20061;-77
2021/10/31 02:20:23;;;;;;;2.30;2.20;;;;;;;5.27;86.15;100946.41;4807821;29;20046;-76
2021/10/31 02:22:53;;;;;;;4.25;3.92;;;;;;;5.33;86.60;100962.72;4822680;29;20517;-76
2021/10/31 02:25:20;;;;;;;3.88;3.33;;;;;;;5.31;87.12;100958.41;4822253;29;20110;-75
2021/10/31 02:27:46;;;;;;;12.13;6.18;;;;;;;5.34;86.69;100960.94;4841167;29;20062;-73
2021/10/31 02:30:13;;;;;;;9.05;5.15;;;;;;;5.28;86.10;100948.09;4841811;29;20098;-75
2021/10/31 02:32:39;;;;;;;8.13;6.05;;;;;;;5.29;86.08;100949.81;4841716;29;20133;-76
2021/10/31 02:35:08;;;;;;;5.35;3.90;;;;;;;5.38;86.24;100960.03;4825639;29;20054;-77
2021/10/31 02:37:35;;;;;;;4.70;4.30;;;;;;;5.39;86.05;100959.16;4844344;29;20076;-75
2021/10/31 02:40:01;;;;;;;12.18;5.22;;;;;;;5.43;86.21;100953.88;4842664;29;20509;-74
2021/10/31 02:42:28;;;;;;;5.60;5.30;;;;;;;5.50;85.96;100954.66;4841821;29;20397;-76
2021/10/31 02:44:54;;;;;;;5.00;4.60;;;;;;;5.54;85.23;100954.59;4841669;29;20103;-75
2021/10/31 02:47:42;;;;;;;5.07;4.70;;;;;;;5.56;85.41;100955.41;4825208;29;20115;-75
2021/10/31 02:50:14;;;;;;;3.67;3.40;;;;;;;5.59;84.94;100954.50;4841647;29;20486;-74
2021/10/31 02:52:58;;;;;;;4.32;4.03;;;;;;;5.52;85.06;100951.19;4810843;29;20137;-73
2021/10/31 02:55:58;;;;;;;6.13;5.68;;;;;;;5.49;85.27;100943.47;4825048;29;20262;-75
2021/10/31 02:58:33;;;;;;;5.53;5.00;;;;;;;5.47;85.08;100952.97;4824959;29;20671;-76
2021/10/31 03:01:01;;;;;;;5.53;3.92;;;;;;;5.46;85.26;100937.47;4809818;29;20058;-75
2021/10/31 03:03:31;;;;;;;3.38;3.08;;;;;;;5.44;85.26;100934.91;4842882;29;20581;-76
2021/10/31 03:05:57;;;;;;;5.07;4.82;;;;;;;5.48;85.22;100946.06;4826618;29;20060;-76
2021/10/31 03:08:25;;;;;;;2.92;2.75;;;;;;;5.48;85.22;100933.97;4824948;29;20057;-77
2021/10/31 03:10:53;;;;;;;10.40;6.28;;;;;;;5.48;84.69;100933.09;4824963;29;20050;-76
2021/10/31 03:13:19;;;;;;;4.00;3.60;;;;;;;5.43;84.67;100933.19;4824714;29;20042;-76
2021/10/31 03:15:45;;;;;;;5.45;3.75;;;;;;;5.50;84.55;100939.09;4809533;29;20473;-75
2021/10/31 03:18:12;;;;;;;3.67;3.38;;;;;;;5.50;84.57;100926.16;4841315;29;20069;-77
2021/10/31 03:20:38;;;;;;;7.05;5.90;;;;;;;5.48;85.01;100915.84;4809516;29;20124;-76
2021/10/31 03:23:04;;;;;;;7.13;5.65;;;;;;;5.50;84.35;100920.97;4841179;29;20092;-77
2021/10/31 03:25:31;;;;;;;4.68;4.20;;;;;;;5.42;84.63;100920.28;4828647;29;20060;-76
2021/10/31 03:27:57;;;;;;;13.18;5.78;;;;;;;5.41;84.55;100923.72;4843065;29;20467;-77
2021/10/31 03:30:24;;;;;;;4.40;4.15;;;;;;;5.31;84.89;100922.16;4859142;29;20073;-75
2021/10/31 03:32:50;;;;;;;7.28;3.78;;;;;;;5.41;84.83;100919.41;4859046;29;20061;-76
2021/10/31 03:35:17;;;;;;;5.55;5.05;;;;;;;5.46;84.04;100929.69;4859171;29;20113;-76
2021/10/31 03:37:43;;;;;;;5.35;4.95;;;;;;;5.45;84.17;100917.63;4842416;29;20661;-75
2021/10/31 03:40:09;;;;;;;3.72;3.53;;;;;;;5.49;83.97;100916.69;4842450;29;20122;-76
2021/10/31 03:42:36;;;;;;;3.60;3.20;;;;;;;5.47;83.80;100919.31;4842391;29;20045;-76
2021/10/31 03:45:05;;;;;;;4.90;3.72;;;;;;;5.58;83.25;100916.53;4842706;29;20049;-76
2021/10/31 03:47:33;;;;;;;7.40;5.32;;;;;;;5.49;83.36;100907.19;4858822;29;20053;-76
2021/10/31 03:49:59;;;;;;;2.67;1.98;;;;;;;5.47;83.52;100913.25;4859162;29;20057;-76
2021/10/31 03:52:25;;;;;;;4.60;4.20;;;;;;;5.48;83.19;100909.81;4842357;29;20049;-76
2021/10/31 03:54:51;;;;;;;11.70;4.65;;;;;;;5.40;83.60;100927.22;4826862;29;20057;-78
2021/10/31 03:57:18;;;;;;;3.38;3.17;;;;;;;5.31;83.91;100914.41;4858926;29;20140;-77
2021/10/31 03:59:44;;;;;;;5.28;4.88;;;;;;;5.27;84.19;100920.53;4858484;29;20050;-77
2021/10/31 04:02:11;;;;;;;2.70;2.60;;;;;;;5.22;84.77;100908.50;4826993;29;20054;-77
2021/10/31 04:04:38;;;;;;;2.80;2.60;;;;;;;5.22;84.80;100908.50;4858464;29;20140;-78
2021/10/31 04:07:04;;;;;;;4.57;4.18;;;;;;;5.25;84.19;100902.41;4858842;29;20053;-76
2021/10/31 04:09:32;;;;;;;3.10;2.75;;;;;;;5.14;84.32;100907.75;4845342;29;20053;-86
2021/10/31 04:11:58;;;;;;;3.03;2.88;;;;;;;5.09;84.91;100909.59;4844311;29;20076;-76
2021/10/31 04:14:25;;;;;;;3.75;2.40;;;;;;;5.04;85.34;100903.59;4864876;29;20029;-83
2021/10/31 04:16:54;;;;;;;5.25;4.78;;;;;;;5.03;84.89;100907.09;4860998;29;20060;-80
2021/10/31 04:19:20;;;;;;;3.83;3.50;;;;;;;5.00;85.21;100901.13;4843737;29;20076;-79
2021/10/31 23:44:41;;;;;;;4.25;3.95;;;;;;;4.87;86.37;100677.09;6259065;22;20043;-74
2021/10/31 23:47:11;;;;;;;4.45;4.20;;;;;;;4.86;86.63;100677.97;6212232;23;20024;-73
2021/10/31 23:49:37;;;;;;;7.50;3.78;;;;;;;4.79;87.22;100672.06;6211501;23;20039;-73
2021/10/31 23:52:04;;;;;;;3.80;3.53;;;;;;;4.72;87.51;100684.25;6210282;23;20020;-74
2021/10/31 23:54:30;;;;;;;4.90;4.50;;;;;;;4.69;87.80;100684.31;6211326;23;20348;-73
2021/10/31 23:56:59;;;;;;;5.55;5.18;;;;;;;4.63;87.56;100684.41;6211890;23;20151;-74
2021/10/31 23:59:27;;;;;;;5.32;5.00;;;;;;;4.55;88.07;100675.06;6211303;23;20013;-74
